Time;durP1;ratioP1;P1;durP2;ratioP2;P2;SDS_P1;SDS_P2;PMS_P1;PMS_P2;Temp;Humidity;BMP_temperature;BMP_pressure;BME280_temperature;BME280_humidity;BME280_pressure;Samples;Min_cycle;Max_cycle;Signal;HPM_P1;HPM_P2
2022/01/09 00:00:19;;;;;;;0.35;0.10;;;19.10;47.40;;;;;;5040684;28;20033;-53
2022/01/09 00:02:50;;;;;;;1.02;0.13;;;19.00;47.20;;;;;;5033582;28;20048;-50
2022/01/09 00:05:18;;;;;;;0.63;0.10;;;19.00;47.20;;;;;;5035050;28;20033;-48
2022/01/09 00:07:45;;;;;;;0.45;0.22;;;19.00;47.20;;;;;;5031634;28;20045;-47
2022/01/09 00:10:12;;;;;;;0.43;0.20;;;19.00;47.20;;;;;;5038476;28;20045;-52
2022/01/09 00:12:39;;;;;;;3.10;0.13;;;19.00;47.20;;;;;;5038610;28;20044;-49
2022/01/09 00:15:08;;;;;;;1.65;0.20;;;19.00;47.20;;;;;;5035708;28;20045;-51
2022/01/09 00:17:35;;;;;;;0.85;0.30;;;19.10;47.30;;;;;;5035996;28;20501;-49
2022/01/09 00:20:05;;;;;;;0.75;0.10;;;19.00;47.20;;;;;;5032288;28;20041;-49
2022/01/09 00:22:37;;;;;;;1.60;0.20;;;19.00;47.10;;;;;;5039723;28;20046;-52
2022/01/09 00:25:06;;;;;;;0.77;0.32;;;19.00;47.10;;;;;;5034683;28;20049;-47
2022/01/09 00:27:33;;;;;;;1.30;0.22;;;19.00;47.10;;;;;;5036038;28;20505;-49
2022/01/09 00:30:01;;;;;;;1.00;0.10;;;19.00;47.10;;;;;;5035817;28;20053;-54
2022/01/09 00:32:28;;;;;;;0.40;0.10;;;19.00;47.10;;;;;;5043676;28;20036;-50
2022/01/09 00:34:55;;;;;;;2.28;0.20;;;19.00;47.10;;;;;;5031863;28;20120;-53
2022/01/09 00:37:24;;;;;;;0.88;0.20;;;19.00;47.10;;;;;;5036338;28;20041;-54
2022/01/09 00:39:51;;;;;;;2.97;0.43;;;19.00;47.70;;;;;;5038079;28;20044;-51
2022/01/09 00:42:19;;;;;;;1.48;0.10;;;19.00;47.00;;;;;;5036471;28;20579;-51
2022/01/09 00:44:46;;;;;;;2.45;0.15;;;19.00;47.00;;;;;;5037892;28;20045;-56
2022/01/09 00:47:13;;;;;;;3.13;0.10;;;19.00;47.00;;;;;;5036482;28;20041;-52
2022/01/09 00:49:40;;;;;;;1.80;0.22;;;18.90;47.00;;;;;;5036004;28;20048;-49
2022/01/09 00:52:07;;;;;;;1.27;0.10;;;18.90;47.00;;;;;;5041255;28;20045;-53
2022/01/09 00:54:35;;;;;;;1.27;0.10;;;18.90;47.00;;;;;;5041651;28;20052;-52
2022/01/09 00:57:03;;;;;;;3.70;0.43;;;18.90;46.90;;;;;;5038956;28;20094;-49
2022/01/09 00:59:30;;;;;;;1.02;0.10;;;18.90;47.00;;;;;;5046960;28;20041;-53
2022/01/09 01:01:57;;;;;;;0.73;0.10;;;18.90;47.00;;;;;;5034403;28;20053;-53
2022/01/09 01:04:24;;;;;;;2.90;0.25;;;18.90;46.90;;;;;;5041838;28;20042;-49
2022/01/09 01:06:51;;;;;;;0.93;0.10;;;18.90;46.90;;;;;;5037890;28;20092;-48
2022/01/09 01:09:20;;;;;;;2.22;0.10;;;18.90;46.90;;;;;;5037676;28;20044;-54
2022/01/09 01:11:49;;;;;;;1.80;1.10;;;18.90;46.90;;;;;;5034778;28;20095;-54
2022/01/09 01:14:16;;;;;;;2.15;0.10;;;18.90;46.90;;;;;;5049754;28;20041;-51
2022/01/09 01:16:43;;;;;;;3.05;0.35;;;18.90;46.90;;;;;;5035327;28;20049;-49
2022/01/09 01:19:11;;;;;;;2.05;0.10;;;18.90;46.90;;;;;;5042506;28;20051;-46
2022/01/09 01:21:38;;;;;;;3.20;0.20;;;18.90;46.90;;;;;;5042756;28;20052;-53
2022/01/09 01:24:06;;;;;;;1.30;0.10;;;18.90;46.90;;;;;;5037227;28;20029;-52
2022/01/09 01:26:33;;;;;;;1.27;0.50;;;18.90;46.80;;;;;;5042788;28;20613;-52
2022/01/09 01:29:01;;;;;;;1.17;0.25;;;18.90;46.80;;;;;;5034850;28;20045;-54
2022/01/09 01:31:28;;;;;;;1.40;0.10;;;18.80;46.80;;;;;;5042144;28;20509;-54
2022/01/09 01:33:55;;;;;;;1.35;0.17;;;18.80;46.80;;;;;;5041951;28;20127;-51
2022/01/09 01:36:22;;;;;;;2.53;0.57;;;18.90;46.80;;;;;;5037283;28;20039;-53
2022/01/09 01:38:49;;;;;;;2.10;0.20;;;18.80;46.80;;;;;;5036150;28;20045;-52
2022/01/09 01:41:17;;;;;;;1.30;0.10;;;18.80;46.70;;;;;;5032663;28;20052;-55
2022/01/09 01:43:44;;;;;;;1.27;0.17;;;18.80;46.70;;;;;;5031751;28;20100;-52
2022/01/09 01:46:12;;;;;;;2.33;0.10;;;18.80;47.30;;;;;;5038848;28;20053;-52
2022/01/09 01:48:39;;;;;;;1.30;0.28;;;18.80;46.70;;;;;;5037849;28;20068;-52
2022/01/09 01:51:06;;;;;;;1.55;0.63;;;18.80;46.70;;;;;;5035612;28;20049;-49
2022/01/09 01:53:34;;;;;;;0.77;0.40;;;18.80;46.70;;;;;;5035000;28;20425;-48
2022/01/09 01:56:01;;;;;;;2.67;0.20;;;18.80;46.70;;;;;;5035882;28;20034;-48
2022/01/09 01:58:31;;;;;;;1.50;0.20;;;18.80;46.80;;;;;;5034980;28;20053;-52
2022/01/09 02:00:58;;;;;;;1.48;0.15;;;18.80;46.70;;;;;;5035656;28;20061;-49
2022/01/09 02:03:26;;;;;;;0.68;0.10;;;18.80;46.70;;;;;;5040266;28;20569;-52
2022/01/09 02:05:54;;;;;;;2.90;0.10;;;18.80;46.70;;;;;;5035757;28;20045;-52
2022/01/09 02:08:21;;;;;;;0.90;0.15;;;18.80;46.70;;;;;;5034905;28;20043;-51
2022/01/09 02:10:48;;;;;;;2.15;0.20;;;18.80;46.70;;;;;;5032288;28;20491;-53
2022/01/09 02:13:17;;;;;;;1.00;0.10;;;18.80;46.60;;;;;;5038212;28;20091;-51
2022/01/09 02:15:46;;;;;;;1.20;0.10;;;18.80;46.60;;;;;;5035240;28;20049;-47
2022/01/09 02:18:16;;;;;;;0.65;0.50;;;18.80;46.70;;;;;;5036374;28;20127;-48
2022/01/09 02:20:45;;;;;;;1.75;0.57;;;18.80;46.70;;;;;;5041621;28;20041;-51
2022/01/09 02:23:14;;;;;;;1.48;0.32;;;18.80;46.60;;;;;;5036138;28;20041;-51
2022/01/09 02:25:41;;;;;;;2.58;0.28;;;18.80;46.60;;;;;;5031082;28;20122;-49
2022/01/09 02:28:10;;;;;;;0.75;0.20;;;18.80;46.60;;;;;;5037301;28;20045;-52
2022/01/09 02:30:37;;;;;;;0.20;0.10;;;18.80;46.70;;;;;;5040712;28;20136;-48
2022/01/09 02:33:07;;;;;;;0.25;0.17;;;18.80;46.60;;;;;;5037801;28;20041;-50
2022/01/09 02:35:35;;;;;;;0.40;0.20;;;18.80;46.50;;;;;;5044766;28;20087;-50
2022/01/09 02:38:05;;;;;;;0.43;0.05;;;18.80;46.60;;;;;;5038866;28;20041;-52
2022/01/09 02:40:33;;;;;;;1.75;0.10;;;18.80;46.60;;;;;;5040044;28;20052;-52
2022/01/09 02:43:00;;;;;;;0.82;0.00;;;18.80;46.60;;;;;;5036982;28;20045;-52
2022/01/09 02:45:28;;;;;;;1.23;0.20;;;18.70;46.50;;;;;;5037039;28;20405;-53
2022/01/09 02:47:57;;;;;;;0.40;0.25;;;18.80;46.50;;;;;;5036733;28;20128;-48
2022/01/09 02:50:33;;;;;;;2.45;0.08;;;18.70;46.50;;;;;;5037013;28;20068;-53
2022/01/09 02:53:02;;;;;;;0.55;0.10;;;18.70;46.40;;;;;;5033060;28;20042;-49
2022/01/09 02:55:30;;;;;;;1.50;0.20;;;18.70;46.50;;;;;;5036772;28;20045;-55
2022/01/09 02:57:59;;;;;;;0.30;0.00;;;18.80;46.50;;;;;;5035052;28;20037;-46
2022/01/09 03:00:29;;;;;;;0.40;0.10;;;18.70;46.50;;;;;;5034346;28;20049;-51
2022/01/09 03:02:56;;;;;;;0.80;0.13;;;18.70;46.40;;;;;;5034445;28;20068;-48
2022/01/09 03:05:24;;;;;;;0.20;0.20;;;18.70;46.40;;;;;;5032859;28;20037;-51
2022/01/09 03:07:51;;;;;;;0.20;0.10;;;18.70;46.50;;;;;;5031177;28;20051;-52
2022/01/09 03:10:20;;;;;;;0.38;0.00;;;18.70;46.40;;;;;;5033969;28;20041;-52
2022/01/09 03:12:50;;;;;;;0.10;0.10;;;18.70;46.40;;;;;;5038758;28;20050;-53
2022/01/09 03:15:18;;;;;;;0.40;0.08;;;18.70;46.40;;;;;;5037058;28;20038;-51
2022/01/09 03:17:46;;;;;;;2.92;0.20;;;18.70;46.40;;;;;;5041327;28;20030;-51
2022/01/09 03:20:16;;;;;;;1.45;0.85;;;18.70;46.40;;;;;;5033026;28;20071;-53
2022/01/09 03:22:44;;;;;;;0.70;0.65;;;18.70;46.40;;;;;;5035064;28;20466;-51
2022/01/09 03:25:12;;;;;;;0.75;0.00;;;18.70;46.40;;;;;;5032311;28;20429;-52
2022/01/09 03:27:40;;;;;;;0.88;0.10;;;18.70;46.40;;;;;;5034433;28;20045;-50
2022/01/09 03:30:10;;;;;;;0.30;0.10;;;18.70;46.30;;;;;;5039391;28;20052;-48
2022/01/09 03:32:40;;;;;;;0.20;0.10;;;18.70;46.30;;;;;;5034243;28;20536;-49
2022/01/09 03:35:09;;;;;;;0.38;0.17;;;18.70;46.30;;;;;;5030553;28;20033;-50
2022/01/09 03:37:36;;;;;;;1.60;0.52;;;18.70;46.30;;;;;;5032899;28;20037;-50
2022/01/09 03:40:05;;;;;;;0.80;0.08;;;18.60;46.20;;;;;;5039174;28;20045;-52
2022/01/09 03:42:32;;;;;;;0.20;0.20;;;18.70;46.30;;;;;;5034784;28;20063;-54
2022/01/09 03:44:59;;;;;;;0.50;0.10;;;18.60;46.20;;;;;;5032835;28;20132;-50
2022/01/09 03:47:27;;;;;;;1.10;0.10;;;18.70;46.20;;;;;;5032432;28;20531;-54
2022/01/09 03:49:55;;;;;;;0.47;0.00;;;18.70;46.20;;;;;;5035257;28;20510;-52
2022/01/09 03:52:26;;;;;;;0.90;0.10;;;18.60;46.20;;;;;;5035435;28;20139;-48
2022/01/09 03:54:53;;;;;;;0.40;0.10;;;18.70;46.30;;;;;;5035551;28;20045;-52
2022/01/09 03:57:20;;;;;;;2.15;0.00;;;18.70;46.30;;;;;;5038824;28;20053;-53
2022/01/09 03:59:47;;;;;;;0.90;0.10;;;18.70;46.30;;;;;;5035550;28;20099;-52
2022/01/09 04:02:14;;;;;;;0.38;0.10;;;18.70;46.30;;;;;;5031331;28;20044;-50
2022/01/09 04:04:43;;;;;;;1.33;0.08;;;18.60;46.30;;;;;;5039909;28;20047;-50
2022/01/09 04:07:10;;;;;;;0.05;0.00;;;18.70;46.30;;;;;;5045379;28;20045;-49
2022/01/09 04:09:41;;;;;;;1.60;0.10;;;18.60;46.30;;;;;;5040462;28;20049;-51
2022/01/09 04:12:15;;;;;;;0.30;0.10;;;18.70;46.30;;;;;;5035434;28;20041;-47
2022/01/09 04:14:42;;;;;;;1.20;0.10;;;18.70;46.30;;;;;;5032318;28;20044;-52
2022/01/09 04:17:14;;;;;;;0.73;0.10;;;18.60;46.30;;;;;;5030285;28;20037;-53
2022/01/09 04:19:43;;;;;;;0.65;0.05;;;18.60;46.20;;;;;;5035491;28;20502;-52
2022/01/09 04:22:10;;;;;;;1.08;0.03;;;18.60;46.20;;;;;;5051696;28;20470;-52
2022/01/09 04:24:37;;;;;;;0.13;0.13;;;18.60;46.20;;;;;;5033546;28;20081;-51
2022/01/09 04:27:05;;;;;;;0.65;0.10;;;18.60;46.20;;;;;;5044850;28;20496;-53
2022/01/09 04:29:32;;;;;;;0.43;0.03;;;18.60;46.20;;;;;;5032104;28;20047;-52
2022/01/09 04:31:59;;;;;;;1.60;0.10;;;18.60;46.20;;;;;;5033998;28;20076;-49
2022/01/09 04:34:27;;;;;;;1.45;0.10;;;18.60;46.20;;;;;;5032690;28;20060;-50
2022/01/09 04:36:58;;;;;;;1.38;0.38;;;18.60;46.10;;;;;;5033708;28;20684;-53
2022/01/09 04:39:26;;;;;;;1.83;0.73;;;18.60;46.10;;;;;;5036242;28;20123;-48
2022/01/09 04:41:53;;;;;;;1.35;0.10;;;18.60;46.20;;;;;;5033971;28;20033;-49
2022/01/09 04:44:20;;;;;;;0.90;0.10;;;18.60;46.20;;;;;;5030424;28;20486;-48
2022/01/09 04:46:54;;;;;;;0.47;0.25;;;18.60;46.20;;;;;;5032667;28;20580;-47
2022/01/09 04:49:25;;;;;;;0.70;0.00;;;18.60;46.20;;;;;;5038788;28;20049;-47
2022/01/09 04:51:53;;;;;;;1.27;0.10;;;18.60;46.20;;;;;;5041691;28;20143;-48
2022/01/09 04:54:21;;;;;;;0.20;0.08;;;18.60;46.20;;;;;;5041710;28;20414;-49
2022/01/09 04:56:48;;;;;;;0.22;0.13;;;18.60;46.20;;;;;;5044497;28;20152;-52
2022/01/09 04:59:15;;;;;;;0.20;0.10;;;18.60;46.20;;;;;;5035071;28;20529;-53
2022/01/09 05:01:42;;;;;;;0.82;0.10;;;18.60;46.20;;;;;;5031967;28;20048;-53
2022/01/09 05:04:09;;;;;;;1.45;0.10;;;18.60;46.20;;;;;;5039215;28;20433;-51
2022/01/09 05:06:37;;;;;;;1.73;0.20;;;18.60;46.10;;;;;;5040146;28;20504;-47
2022/01/09 05:09:04;;;;;;;0.10;0.10;;;18.60;46.10;;;;;;5033343;28;20053;-50
2022/01/09 05:11:33;;;;;;;1.08;0.10;;;18.60;46.10;;;;;;5031530;28;20041;-47
2022/01/09 05:14:00;;;;;;;0.65;0.00;;;18.60;46.20;;;;;;5031782;28;20037;-47
2022/01/09 05:16:27;;;;;;;1.23;0.03;;;18.50;46.10;;;;;;5036043;28;20048;-49
2022/01/09 05:18:58;;;;;;;0.25;0.03;;;18.60;46.20;;;;;;5035253;28;20042;-49
2022/01/09 05:21:25;;;;;;;0.30;0.00;;;18.60;46.20;;;;;;5037827;28;20041;-51
2022/01/09 05:23:53;;;;;;;0.75;0.00;;;18.50;46.20;;;;;;5033620;28;20045;-49
2022/01/09 05:26:20;;;;;;;0.00;0.00;;;18.60;46.20;;;;;;5033041;28;20047;-48
2022/01/09 05:28:49;;;;;;;0.52;0.32;;;18.60;46.20;;;;;;5043871;28;20398;-48
2022/01/09 05:31:16;;;;;;;0.30;0.10;;;18.60;46.20;;;;;;5040120;28;20041;-50
2022/01/09 05:33:43;;;;;;;0.32;0.32;;;18.60;46.20;;;;;;5042741;28;20044;-48
2022/01/09 05:36:10;;;;;;;1.70;0.00;;;18.60;46.20;;;;;;5043690;28;20503;-48
2022/01/09 05:38:36;;;;;;;0.60;0.10;;;18.60;46.20;;;;;;5033535;28;20588;-51
2022/01/09 05:41:03;;;;;;;0.08;0.05;;;18.60;46.20;;;;;;5036836;28;20059;-52
2022/01/09 05:43:32;;;;;;;1.10;0.10;;;18.50;46.10;;;;;;5035165;28;20045;-47
2022/01/09 05:46:00;;;;;;;1.85;0.05;;;18.60;46.10;;;;;;5036416;28;20540;-50
2022/01/09 05:48:27;;;;;;;2.72;0.20;;;18.60;46.20;;;;;;5041655;28;20033;-52
2022/01/09 05:50:54;;;;;;;0.57;0.05;;;18.50;46.10;;;;;;5036864;28;20118;-52
2022/01/09 05:53:21;;;;;;;0.40;0.10;;;18.60;46.20;;;;;;5040003;28;20036;-49
2022/01/09 05:55:48;;;;;;;0.30;0.00;;;18.50;46.10;;;;;;5036174;28;20042;-49
2022/01/09 05:58:15;;;;;;;0.40;0.10;;;18.50;46.10;;;;;;5057821;28;20041;-48
2022/01/09 06:00:42;;;;;;;0.93;0.17;;;18.60;46.10;;;;;;5040244;28;20052;-47
2022/01/09 06:03:11;;;;;;;0.85;0.10;;;18.50;46.10;;;;;;5036993;28;20087;-48
2022/01/09 06:05:38;;;;;;;1.08;0.00;;;18.50;46.10;;;;;;5035648;28;20048;-52
2022/01/09 06:08:05;;;;;;;1.58;0.10;;;18.60;46.10;;;;;;5036348;28;20401;-51
2022/01/09 06:10:32;;;;;;;0.35;0.10;;;18.60;46.10;;;;;;5036528;28;20041;-54
2022/01/09 06:12:59;;;;;;;0.63;0.10;;;18.50;46.10;;;;;;5037943;28;20049;-48
2022/01/09 06:15:26;;;;;;;0.70;0.20;;;18.50;46.10;;;;;;5041863;28;20086;-54
2022/01/09 06:17:53;;;;;;;1.35;0.38;;;18.60;46.10;;;;;;5037536;28;20053;-53
2022/01/09 06:20:22;;;;;;;1.15;0.20;;;18.50;46.10;;;;;;5034102;28;20037;-50
2022/01/09 06:22:49;;;;;;;0.25;0.00;;;18.50;46.10;;;;;;5034480;28;20068;-48
2022/01/09 06:25:16;;;;;;;0.20;0.10;;;18.50;46.10;;;;;;5040626;28;20041;-50
2022/01/09 06:27:43;;;;;;;0.50;0.10;;;18.50;46.00;;;;;;5033953;28;20052;-49
2022/01/09 06:30:11;;;;;;;0.63;0.10;;;18.50;46.10;;;;;;5037796;28;20041;-47
2022/01/09 06:32:38;;;;;;;0.10;0.00;;;18.50;46.10;;;;;;5034170;28;20049;-48
2022/01/09 06:35:07;;;;;;;0.20;0.10;;;18.50;46.10;;;;;;5030467;28;20075;-52
2022/01/09 06:37:35;;;;;;;1.90;0.10;;;18.50;46.10;;;;;;5033129;28;20124;-52
2022/01/09 06:40:02;;;;;;;2.75;0.30;;;18.50;46.00;;;;;;5039344;28;20057;-51
2022/01/09 06:42:29;;;;;;;1.73;0.10;;;18.50;46.10;;;;;;5034528;28;20037;-48
2022/01/09 06:44:56;;;;;;;1.67;0.75;;;18.50;46.10;;;;;;5031194;28;20038;-49
2022/01/09 06:47:23;;;;;;;1.73;0.20;;;18.50;46.10;;;;;;5033733;28;20035;-54
2022/01/09 06:49:50;;;;;;;1.02;0.20;;;18.50;46.20;;;;;;5045586;28;20052;-47
2022/01/09 06:52:17;;;;;;;2.00;0.10;;;18.50;46.10;;;;;;5035751;28;20071;-49
2022/01/09 06:54:45;;;;;;;0.82;0.20;;;18.50;46.10;;;;;;5036125;28;20053;-47
2022/01/09 06:57:13;;;;;;;0.43;0.10;;;18.50;46.10;;;;;;5037897;28;20064;-48
2022/01/09 06:59:40;;;;;;;0.73;0.73;;;18.50;46.10;;;;;;5035519;28;20045;-48
2022/01/09 07:02:07;;;;;;;1.35;0.30;;;18.50;46.10;;;;;;5032450;28;20037;-48
2022/01/09 07:04:34;;;;;;;1.02;0.13;;;18.50;46.10;;;;;;5034651;28;20761;-50
2022/01/09 07:07:01;;;;;;;0.45;0.10;;;18.50;46.70;;;;;;5040539;28;20052;-47
2022/01/09 07:09:28;;;;;;;1.15;0.30;;;18.50;46.10;;;;;;5036400;28;20037;-47
2022/01/09 07:11:56;;;;;;;1.13;0.22;;;18.50;46.10;;;;;;5032779;28;20300;-49
2022/01/09 07:14:23;;;;;;;1.75;0.10;;;18.50;46.10;;;;;;5034427;28;20045;-47
2022/01/09 07:16:50;;;;;;;1.40;0.03;;;18.50;46.10;;;;;;5036348;28;20053;-52
2022/01/09 07:19:17;;;;;;;1.20;0.20;;;18.50;46.20;;;;;;5041079;28;20045;-54
2022/01/09 07:21:44;;;;;;;0.63;0.10;;;18.50;46.10;;;;;;5036840;28;20060;-51
2022/01/09 07:24:11;;;;;;;0.25;0.10;;;18.50;46.20;;;;;;5038092;28;20041;-53
2022/01/09 07:26:38;;;;;;;1.65;0.30;;;18.50;46.10;;;;;;5045095;28;20044;-49
2022/01/09 07:29:06;;;;;;;1.10;0.10;;;18.50;46.20;;;;;;5032731;28;20042;-48
2022/01/09 07:31:33;;;;;;;0.43;0.10;;;18.50;46.20;;;;;;5036098;28;20049;-48
2022/01/09 07:34:00;;;;;;;1.95;0.32;;;18.50;46.20;;;;;;5035553;28;20051;-51
2022/01/09 07:36:27;;;;;;;0.20;0.10;;;18.50;46.20;;;;;;5030928;28;20048;-48
2022/01/09 07:38:54;;;;;;;0.35;0.30;;;18.50;46.20;;;;;;5034321;28;20510;-49
2022/01/09 07:41:21;;;;;;;2.13;0.20;;;18.50;46.20;;;;;;5033597;28;20034;-52
2022/01/09 07:43:48;;;;;;;1.80;0.20;;;18.50;46.30;;;;;;5031108;28;20102;-47
2022/01/09 07:46:17;;;;;;;1.48;0.10;;;18.50;46.20;;;;;;5034166;28;20050;-51
2022/01/09 07:48:44;;;;;;;1.10;0.10;;;18.50;46.20;;;;;;5038476;28;20051;-54
2022/01/09 07:51:11;;;;;;;2.42;0.10;;;18.50;46.20;;;;;;5032789;28;20056;-49
2022/01/09 07:53:38;;;;;;;0.40;0.20;;;18.50;46.20;;;;;;5031056;28;20514;-52
2022/01/09 07:56:06;;;;;;;1.10;0.10;;;18.50;46.20;;;;;;5030665;28;20037;-49
2022/01/09 07:58:33;;;;;;;1.40;0.10;;;18.50;46.30;;;;;;5039121;28;20168;-52
2022/01/09 08:01:00;;;;;;;0.50;0.10;;;18.50;46.80;;;;;;5041621;28;20044;-54
2022/01/09 08:03:28;;;;;;;2.08;0.25;;;18.50;46.30;;;;;;5035533;28;20049;-50
2022/01/09 08:05:56;;;;;;;0.35;0.10;;;18.50;46.30;;;;;;5032645;28;20545;-48
2022/01/09 08:08:23;;;;;;;0.20;0.10;;;18.50;46.30;;;;;;5034769;28;20115;-49
2022/01/09 08:10:50;;;;;;;1.55;0.10;;;18.60;46.30;;;;;;5031049;28;20037;-46
2022/01/09 08:13:18;;;;;;;0.60;0.43;;;18.50;46.30;;;;;;5032162;28;20392;-52
2022/01/09 08:15:45;;;;;;;1.75;0.10;;;18.50;46.30;;;;;;5039193;28;20044;-50
2022/01/09 08:18:13;;;;;;;0.43;0.10;;;18.50;46.30;;;;;;5035707;28;20049;-51
2022/01/09 08:20:42;;;;;;;0.20;0.10;;;18.50;46.30;;;;;;5042479;28;20049;-47
2022/01/09 08:23:09;;;;;;;1.13;0.00;;;18.60;46.40;;;;;;5032468;28;20037;-51
2022/01/09 08:25:36;;;;;;;0.68;0.10;;;18.60;46.40;;;;;;5037651;28;20576;-53
2022/01/09 08:28:04;;;;;;;0.73;0.20;;;18.50;46.30;;;;;;5035376;28;20124;-47
2022/01/09 08:30:31;;;;;;;0.50;0.10;;;18.60;46.30;;;;;;5035671;28;20052;-50
2022/01/09 08:32:58;;;;;;;0.10;0.10;;;18.50;46.30;;;;;;5035373;28;20048;-51
2022/01/09 08:35:25;;;;;;;1.30;0.20;;;18.50;46.30;;;;;;5039429;28;20037;-53
2022/01/09 08:37:54;;;;;;;1.05;0.10;;;18.50;46.30;;;;;;5031262;28;20049;-52
2022/01/09 08:40:24;;;;;;;0.50;0.10;;;18.50;46.30;;;;;;5040766;28;20040;-48
2022/01/09 08:42:53;;;;;;;0.25;0.10;;;18.60;46.30;;;;;;5037919;28;20052;-49
2022/01/09 08:45:22;;;;;;;0.30;0.03;;;18.50;46.30;;;;;;5038059;28;20138;-52
2022/01/09 08:47:49;;;;;;;0.10;0.00;;;18.50;46.30;;;;;;5038454;28;20041;-53
2022/01/09 08:50:18;;;;;;;0.10;0.10;;;18.50;46.20;;;;;;5032312;28;20033;-49
2022/01/09 08:52:45;;;;;;;1.08;0.45;;;18.60;46.30;;;;;;5029985;28;20124;-52
2022/01/09 08:55:14;;;;;;;0.75;0.10;;;18.60;46.30;;;;;;5036161;28;20497;-50
2022/01/09 08:57:42;;;;;;;0.30;0.10;;;18.50;46.80;;;;;;5036613;28;20124;-48
2022/01/09 09:00:10;;;;;;;0.30;0.10;;;18.50;46.20;;;;;;5039279;28;20524;-49
2022/01/09 09:02:38;;;;;;;0.85;0.00;;;18.60;46.30;;;;;;5034090;28;20037;-47
2022/01/09 09:05:06;;;;;;;0.20;0.10;;;18.50;46.20;;;;;;5034042;28;20045;-48
2022/01/09 09:07:34;;;;;;;0.63;0.10;;;18.60;46.30;;;;;;5040259;28;20142;-46
2022/01/09 09:10:03;;;;;;;0.73;0.10;;;18.60;46.40;;;;;;5046687;28;20045;-48
2022/01/09 09:12:33;;;;;;;0.35;0.10;;;18.50;46.30;;;;;;5044452;28;20044;-46
2022/01/09 09:15:01;;;;;;;0.30;0.10;;;18.50;46.30;;;;;;5044589;28;20416;-49
2022/01/09 09:17:28;;;;;;;0.88;0.10;;;18.60;46.40;;;;;;5036099;28;20044;-47
2022/01/09 09:19:55;;;;;;;0.30;0.10;;;18.60;46.30;;;;;;5050608;28;20041;-48
2022/01/09 09:22:22;;;;;;;0.00;0.00;;;18.60;46.30;;;;;;5040730;28;20584;-51
2022/01/09 09:24:50;;;;;;;2.40;0.13;;;18.60;46.30;;;;;;5042646;28;20044;-52
2022/01/09 09:27:19;;;;;;;0.50;0.03;;;18.50;46.30;;;;;;5042206;28;20526;-47
2022/01/09 09:29:48;;;;;;;0.73;0.10;;;18.60;46.30;;;;;;5034288;28;20032;-51
2022/01/09 09:32:15;;;;;;;0.85;0.28;;;18.60;46.30;;;;;;5036391;28;20080;-49
2022/01/09 09:34:42;;;;;;;1.15;0.10;;;18.60;46.40;;;;;;5041601;28;20044;-49
2022/01/09 09:37:10;;;;;;;0.20;0.10;;;18.60;46.30;;;;;;5039459;28;20117;-54
2022/01/09 09:39:37;;;;;;;0.17;0.00;;;18.50;46.30;;;;;;5039497;28;20045;-53
2022/01/09 09:42:04;;;;;;;0.55;0.10;;;18.60;46.40;;;;;;5038204;28;20040;-50
2022/01/09 09:44:31;;;;;;;1.15;0.10;;;18.50;46.30;;;;;;5047911;28;20049;-52
2022/01/09 09:47:01;;;;;;;0.57;0.30;;;18.60;46.40;;;;;;5043945;28;20057;-52
2022/01/09 09:49:28;;;;;;;0.63;0.10;;;18.60;46.40;;;;;;5041076;28;20045;-51
2022/01/09 09:51:55;;;;;;;0.70;0.20;;;18.60;46.40;;;;;;5035161;28;20038;-51
2022/01/09 09:54:22;;;;;;;0.30;0.00;;;18.60;46.30;;;;;;5036247;28;20401;-47
2022/01/09 09:56:50;;;;;;;0.10;0.00;;;18.60;46.40;;;;;;5043909;28;20041;-47
2022/01/09 09:59:23;;;;;;;0.70;0.10;;;18.60;46.40;;;;;;5044965;28;20219;-52
2022/01/09 10:01:52;;;;;;;0.22;0.00;;;18.60;46.40;;;;;;5032874;28;20059;-51
2022/01/09 10:04:20;;;;;;;1.27;0.10;;;18.60;47.00;;;;;;5036531;28;20051;-52
2022/01/09 10:06:49;;;;;;;0.00;0.00;;;18.60;46.40;;;;;;5043303;28;20083;-50
2022/01/09 10:09:18;;;;;;;0.10;0.10;;;18.60;46.30;;;;;;5043975;28;20044;-51
2022/01/09 10:11:49;;;;;;;0.22;0.10;;;18.60;46.40;;;;;;5044146;28;20588;-49
2022/01/09 10:14:18;;;;;;;1.58;0.10;;;18.60;46.40;;;;;;5035900;28;20111;-50
2022/01/09 10:17:11;;;;;;;0.13;0.00;;;18.60;46.40;;;;;;5040369;28;20033;-50
2022/01/09 10:19:48;;;;;;;0.40;0.00;;;18.70;46.30;;;;;;5038409;28;20132;-55
2022/01/09 10:22:36;;;;;;;0.40;0.00;;;18.60;46.40;;;;;;5037131;28;20033;-54
2022/01/09 10:25:36;;;;;;;0.75;0.10;;;18.60;46.30;;;;;;5042104;28;20085;-53
2022/01/09 10:28:07;;;;;;;1.42;0.10;;;18.60;46.30;;;;;;5037428;28;20080;-53
2022/01/09 10:30:37;;;;;;;0.10;0.10;;;18.60;46.40;;;;;;5037601;28;20047;-54
2022/01/09 10:33:07;;;;;;;0.45;0.10;;;18.60;46.40;;;;;;5037959;28;20044;-51
2022/01/09 10:35:38;;;;;;;1.35;0.25;;;18.60;46.40;;;;;;5043683;28;20041;-50
2022/01/09 10:38:13;;;;;;;0.52;0.35;;;18.60;46.40;;;;;;5033544;28;20525;-54
2022/01/09 10:40:43;;;;;;;3.33;0.20;;;18.60;46.40;;;;;;5039629;28;20045;-53
2022/01/09 10:43:12;;;;;;;1.63;0.20;;;18.60;46.50;;;;;;5047798;28;20047;-53
2022/01/09 10:45:42;;;;;;;1.00;0.30;;;18.60;46.50;;;;;;5041075;28;20047;-51
2022/01/09 10:48:12;;;;;;;1.83;0.30;;;18.60;46.50;;;;;;5037243;28;20120;-50
2022/01/09 10:50:42;;;;;;;1.60;0.70;;;18.60;46.40;;;;;;5033610;28;20045;-49
2022/01/09 10:53:18;;;;;;;5.75;0.47;;;18.70;46.50;;;;;;5032982;28;20075;-48
2022/01/09 10:55:49;;;;;;;2.35;0.30;;;18.70;46.40;;;;;;5046601;28;20486;-51
2022/01/09 10:58:18;;;;;;;5.07;0.75;;;18.60;46.40;;;;;;5038853;28;20577;-48
2022/01/09 11:00:46;;;;;;;3.03;0.88;;;18.70;46.50;;;;;;5037553;28;20038;-50
2022/01/09 11:03:13;;;;;;;3.35;1.08;;;18.70;46.40;;;;;;5034577;28;20045;-51
2022/01/09 11:05:42;;;;;;;3.28;0.80;;;18.70;46.40;;;;;;5034359;28;20059;-53
2022/01/09 11:08:09;;;;;;;2.65;0.38;;;18.70;46.40;;;;;;5035644;28;20040;-53
2022/01/09 11:10:37;;;;;;;4.82;0.45;;;18.70;46.40;;;;;;5034339;28;20065;-51
2022/01/09 11:13:05;;;;;;;2.33;0.50;;;18.70;46.40;;;;;;5035334;28;20052;-51
2022/01/09 11:15:40;;;;;;;1.27;0.57;;;18.70;47.00;;;;;;5040809;28;20033;-49
2022/01/09 11:18:09;;;;;;;1.65;0.20;;;18.60;46.90;;;;;;5035193;28;20116;-53
2022/01/09 11:20:37;;;;;;;3.00;0.88;;;18.70;46.40;;;;;;5041550;28;20041;-52
2022/01/09 11:23:08;;;;;;;1.10;0.30;;;18.70;46.40;;;;;;5032094;28;20128;-52
2022/01/09 11:25:39;;;;;;;1.67;0.35;;;18.70;46.50;;;;;;5047830;28;20053;-51
2022/01/09 11:28:16;;;;;;;1.88;0.25;;;18.70;46.40;;;;;;5034757;28;20236;-53
2022/01/09 11:30:57;;;;;;;1.08;0.32;;;18.70;46.40;;;;;;5036028;28;20084;-52
2022/01/09 11:33:40;;;;;;;2.35;0.20;;;18.70;46.40;;;;;;5039400;28;20048;-51
2022/01/09 11:36:13;;;;;;;1.95;0.80;;;18.70;47.00;;;;;;5040190;28;20043;-48
2022/01/09 11:38:53;;;;;;;1.33;0.40;;;18.70;46.40;;;;;;5031863;28;20067;-52
2022/01/09 11:41:24;;;;;;;2.58;0.20;;;18.70;46.40;;;;;;5034737;28;20460;-52
2022/01/09 11:43:53;;;;;;;1.42;0.20;;;18.60;46.40;;;;;;5042904;28;20071;-49
2022/01/09 11:46:21;;;;;;;0.45;0.40;;;18.70;46.40;;;;;;5035267;28;20456;-51
2022/01/09 11:49:07;;;;;;;1.35;1.08;;;18.70;46.40;;;;;;5036339;28;20057;-52
2022/01/09 11:51:36;;;;;;;1.55;0.52;;;18.70;46.40;;;;;;5042525;28;20079;-55
2022/01/09 11:54:10;;;;;;;1.92;0.57;;;18.70;46.40;;;;;;5036124;28;20044;-55
2022/01/09 11:56:58;;;;;;;1.55;0.40;;;18.70;46.40;;;;;;5042951;28;20063;-53
2022/01/09 11:59:31;;;;;;;2.22;0.80;;;18.70;46.40;;;;;;5029315;28;20041;-55
2022/01/09 12:02:01;;;;;;;1.90;0.80;;;18.60;46.40;;;;;;5028998;28;20038;-52
2022/01/09 12:05:06;;;;;;;1.08;0.30;;;18.60;46.40;;;;;;5038449;28;20131;-50
2022/01/09 12:08:05;;;;;;;1.60;0.55;;;18.70;46.50;;;;;;5035038;28;20049;-54
2022/01/09 12:10:39;;;;;;;3.03;0.30;;;18.70;46.40;;;;;;5036540;28;20489;-51
2022/01/09 12:13:27;;;;;;;1.92;0.95;;;18.60;46.50;;;;;;5033102;28;20104;-51
2022/01/09 12:15:54;;;;;;;3.13;0.80;;;18.60;46.50;;;;;;5036850;28;20041;-51
2022/01/09 12:18:43;;;;;;;2.72;0.98;;;18.60;46.50;;;;;;5034075;28;20530;-50
2022/01/09 12:21:11;;;;;;;4.18;1.33;;;18.70;46.50;;;;;;5038612;28;20036;-49
2022/01/09 12:23:38;;;;;;;4.60;0.88;;;18.60;46.50;;;;;;5031740;28;20099;-55
2022/01/09 12:26:27;;;;;;;3.03;0.82;;;18.60;46.60;;;;;;5033768;28;20120;-51
2022/01/09 12:28:55;;;;;;;5.18;1.50;;;18.70;46.50;;;;;;5027978;28;20051;-48
2022/01/09 12:31:25;;;;;;;4.03;1.13;;;18.60;46.50;;;;;;5033076;28;20056;-54
2022/01/09 12:33:53;;;;;;;3.63;1.52;;;18.70;46.60;;;;;;5037415;28;20168;-52
2022/01/09 12:36:27;;;;;;;5.93;1.75;;;18.60;46.50;;;;;;5037696;28;20120;-54
2022/01/09 12:38:57;;;;;;;5.97;1.08;;;18.70;47.20;;;;;;5041683;28;20110;-51
2022/01/09 12:41:29;;;;;;;4.97;1.50;;;18.70;46.60;;;;;;5043365;28;20033;-54
2022/01/09 12:44:00;;;;;;;6.78;2.38;;;18.70;46.60;;;;;;5034266;28;20033;-51
2022/01/09 12:46:29;;;;;;;6.80;1.77;;;18.70;46.60;;;;;;4990393;28;1250332;-52
2022/01/09 12:48:58;;;;;;;3.95;1.70;;;18.70;46.60;;;;;;5037308;28;20458;-54
2022/01/09 12:51:26;;;;;;;4.82;1.08;;;18.70;46.60;;;;;;5043641;28;20037;-52
2022/01/09 12:53:55;;;;;;;5.45;1.35;;;18.70;46.60;;;;;;5042293;28;20498;-51
2022/01/09 12:56:24;;;;;;;4.10;1.35;;;18.70;46.60;;;;;;5034956;28;20045;-55